createdAt,value
2022-11-24T00:00:34.843Z,7.15
2022-11-24T00:01:34.836Z,7.15
2022-11-24T00:02:34.982Z,7.20
2022-11-24T00:03:34.880Z,7.17
2022-11-24T00:04:35.133Z,7.17
2022-11-24T00:05:34.790Z,7.18
2022-11-24T00:06:34.780Z,7.21
2022-11-24T00:07:34.855Z,7.23
2022-11-24T00:08:34.749Z,7.20
2022-11-24T00:09:34.743Z,7.21
2022-11-24T00:10:34.744Z,7.23
2022-11-24T00:11:34.722Z,7.21
2022-11-24T00:12:34.704Z,7.21
2022-11-24T00:13:34.719Z,7.20
2022-11-24T00:14:34.982Z,7.21
2022-11-24T00:15:34.674Z,7.20
2022-11-24T00:16:34.746Z,7.13
2022-11-24T00:17:34.649Z,7.14
2022-11-24T00:18:34.636Z,7.13
2022-11-24T00:19:34.628Z,7.13
2022-11-24T00:20:34.612Z,7.15
2022-11-24T00:21:34.599Z,7.18
2022-11-24T00:22:34.594Z,7.07
2022-11-24T00:23:34.578Z,7.14
2022-11-24T00:24:34.921Z,7.13
2022-11-24T00:25:34.559Z,7.14
2022-11-24T00:26:34.546Z,7.10
2022-11-24T00:27:34.531Z,7.11
2022-11-24T00:28:34.518Z,7.07
2022-11-24T00:29:34.508Z,7.05
2022-11-24T00:30:34.568Z,7.06
2022-11-24T00:31:34.525Z,7.14
2022-11-24T00:32:34.469Z,7.07
2022-11-24T00:33:34.459Z,7.14
2022-11-24T00:34:34.778Z,7.00
2022-11-24T00:35:34.440Z,7.18
2022-11-24T00:36:34.426Z,7.18
2022-11-24T00:37:34.419Z,7.15
2022-11-24T00:38:34.405Z,7.23
2022-11-24T00:39:34.382Z,7.18
2022-11-24T00:40:35.227Z,7.17
2022-11-24T00:41:34.369Z,7.18
2022-11-24T00:42:34.353Z,7.20
2022-11-24T00:43:34.346Z,7.15
2022-11-24T00:44:34.548Z,7.18
2022-11-24T00:45:34.321Z,7.14
2022-11-24T00:46:34.419Z,7.14
2022-11-24T00:47:34.300Z,7.13
2022-11-24T00:48:34.286Z,7.21
2022-11-24T00:49:34.271Z,7.13
2022-11-24T00:50:34.261Z,7.21
2022-11-24T00:51:34.255Z,7.20
2022-11-24T00:52:34.232Z,7.18
2022-11-24T00:53:34.231Z,7.20
2022-11-24T00:54:34.653Z,7.17
2022-11-24T00:55:34.206Z,7.14
2022-11-24T00:56:34.195Z,7.23
2022-11-24T00:57:34.179Z,7.17
2022-11-24T00:58:34.156Z,7.23
2022-11-24T00:59:34.160Z,7.33
2022-11-24T01:00:34.144Z,7.31
2022-11-24T01:01:34.174Z,7.38
2022-11-24T01:02:34.180Z,7.25
2022-11-24T01:03:34.112Z,7.23
2022-11-24T01:04:34.351Z,7.20
2022-11-24T01:05:34.089Z,7.33
2022-11-24T01:06:34.072Z,7.28
2022-11-24T01:07:34.136Z,7.39
2022-11-24T01:08:34.057Z,7.25
2022-11-24T01:09:34.038Z,7.33
2022-11-24T01:10:34.028Z,7.32
2022-11-24T01:11:34.015Z,7.42
2022-11-24T01:12:34.001Z,7.47
2022-11-24T01:13:33.996Z,7.32
2022-11-24T01:14:34.200Z,7.36
2022-11-24T01:15:33.990Z,7.35
2022-11-24T01:16:33.962Z,7.35
2022-11-24T01:17:33.944Z,7.35
2022-11-24T01:18:33.935Z,7.39
2022-11-24T01:19:33.920Z,7.38
2022-11-24T01:20:33.911Z,7.60
2022-11-24T01:21:33.901Z,7.51
2022-11-24T01:22:33.885Z,7.54
2022-11-24T01:23:33.877Z,7.56
2022-11-24T01:24:34.052Z,7.40
2022-11-24T01:25:33.854Z,7.40
2022-11-24T01:26:33.842Z,7.38
2022-11-24T01:27:33.827Z,7.38
2022-11-24T01:28:33.818Z,7.38
2022-11-24T01:29:33.831Z,7.38
2022-11-24T01:30:33.832Z,7.36
2022-11-24T01:31:33.780Z,7.36
2022-11-24T01:32:33.767Z,7.36
2022-11-24T01:33:33.761Z,7.35
2022-11-24T01:34:33.959Z,7.25
2022-11-24T01:35:33.739Z,7.23
2022-11-24T01:36:33.721Z,7.23
2022-11-24T01:37:33.709Z,7.20
2022-11-24T01:38:33.699Z,7.20
2022-11-24T01:39:33.687Z,7.24
2022-11-24T01:40:33.678Z,7.23
2022-11-24T01:41:33.670Z,7.10
2022-11-24T01:42:33.649Z,7.10
2022-11-24T01:43:33.643Z,7.10
2022-11-24T01:44:33.853Z,7.14
2022-11-24T01:45:33.618Z,6.99
2022-11-24T01:46:33.705Z,6.96
2022-11-24T01:47:33.593Z,7.02
2022-11-24T01:48:33.585Z,6.93
2022-11-24T01:49:33.573Z,6.87
2022-11-24T01:50:33.559Z,6.92
2022-11-24T01:51:33.551Z,6.84
2022-11-24T01:52:33.532Z,6.85
2022-11-24T01:53:33.526Z,6.81
2022-11-24T01:54:33.895Z,6.92
2022-11-24T01:55:33.506Z,6.78
2022-11-24T01:56:33.486Z,6.78
2022-11-24T01:57:33.475Z,6.82
2022-11-24T01:58:33.465Z,6.87
2022-11-24T01:59:33.454Z,6.92
2022-11-24T02:00:33.441Z,6.79
2022-11-24T02:01:33.532Z,6.85
2022-11-24T02:02:33.451Z,6.84
2022-11-24T02:03:33.407Z,6.84
2022-11-24T02:04:33.654Z,6.85
2022-11-24T02:05:33.384Z,6.87
2022-11-24T02:06:33.376Z,6.87
2022-11-24T02:07:33.400Z,6.81
2022-11-24T02:08:33.344Z,6.82
2022-11-24T02:09:33.334Z,6.82
2022-11-24T02:10:33.324Z,6.77
2022-11-24T02:11:33.354Z,6.88
2022-11-24T02:12:33.297Z,6.82
2022-11-24T02:13:33.291Z,6.81
2022-11-24T02:14:33.647Z,6.88
2022-11-24T02:15:33.308Z,6.84
2022-11-24T02:16:33.247Z,6.78
2022-11-24T02:17:33.240Z,6.82
2022-11-24T02:18:33.229Z,6.75
2022-11-24T02:19:33.218Z,6.69
2022-11-24T02:20:33.208Z,6.77
2022-11-24T02:21:33.192Z,6.78
2022-11-24T02:22:33.182Z,6.69
2022-11-24T02:23:33.171Z,6.67
2022-11-24T02:24:33.285Z,6.69
2022-11-24T02:25:33.146Z,6.75
2022-11-24T02:26:33.133Z,6.62
2022-11-24T02:27:33.124Z,6.70
2022-11-24T02:28:33.114Z,6.67
2022-11-24T02:29:33.097Z,6.70
2022-11-24T02:30:33.089Z,6.69
2022-11-24T02:31:33.144Z,6.72
2022-11-24T02:32:33.063Z,6.69
2022-11-24T02:33:33.051Z,6.69
2022-11-24T02:34:33.229Z,6.66
2022-11-24T02:35:33.028Z,6.57
2022-11-24T02:36:33.018Z,6.72
2022-11-24T02:37:33.009Z,6.72
2022-11-24T02:38:33.003Z,6.56
2022-11-24T02:39:32.986Z,6.60
2022-11-24T02:40:32.969Z,6.64
2022-11-24T02:41:32.957Z,6.72
2022-11-24T02:42:32.944Z,6.67
2022-11-24T02:43:32.938Z,6.63
2022-11-24T02:44:33.254Z,6.57
2022-11-24T02:45:32.915Z,6.63
2022-11-24T02:46:32.947Z,6.52
2022-11-24T02:47:32.887Z,6.64
2022-11-24T02:48:32.872Z,6.60
2022-11-24T02:49:32.857Z,6.60
2022-11-24T02:50:32.851Z,6.57
2022-11-24T02:51:32.833Z,6.54
2022-11-24T02:52:32.826Z,6.63
2022-11-24T02:53:32.813Z,6.62
2022-11-24T02:54:33.142Z,6.62
2022-11-24T02:55:32.794Z,6.57
2022-11-24T02:56:32.782Z,6.62
2022-11-24T02:57:32.771Z,6.63
2022-11-24T02:58:32.759Z,6.60
2022-11-24T02:59:32.742Z,6.60
2022-11-24T03:00:32.732Z,6.67
2022-11-24T03:01:32.739Z,6.64
2022-11-24T03:02:32.757Z,6.54
2022-11-24T03:03:32.698Z,6.62
2022-11-24T03:04:33.079Z,6.59
2022-11-24T03:05:32.673Z,6.54
2022-11-24T03:06:32.667Z,6.59
2022-11-24T03:07:32.691Z,6.67
2022-11-24T03:08:32.645Z,6.59
2022-11-24T03:09:32.627Z,6.64
2022-11-24T03:10:32.617Z,6.60
2022-11-24T03:11:32.603Z,6.66
2022-11-24T03:12:32.590Z,6.66
2022-11-24T03:13:32.576Z,6.69
2022-11-24T03:14:33.030Z,6.64
2022-11-24T03:15:32.649Z,6.72
2022-11-24T03:16:32.545Z,6.79
2022-11-24T03:17:32.532Z,6.87
2022-11-24T03:18:32.519Z,6.87
2022-11-24T03:19:32.507Z,6.87
2022-11-24T03:20:32.497Z,7.02
2022-11-24T03:21:32.485Z,6.96
2022-11-24T03:22:32.475Z,7.02
2022-11-24T03:23:32.461Z,7.00
2022-11-24T03:24:32.775Z,7.07
2022-11-24T03:25:32.445Z,7.28
2022-11-24T03:26:32.424Z,7.35
2022-11-24T03:27:32.414Z,7.35
2022-11-24T03:28:32.410Z,7.40
2022-11-24T03:29:32.389Z,7.48
2022-11-24T03:30:32.381Z,7.42
2022-11-24T03:31:32.412Z,7.36
2022-11-24T03:32:32.354Z,7.50
2022-11-24T03:33:32.340Z,7.51
2022-11-24T03:34:32.780Z,7.48
2022-11-24T03:35:32.322Z,7.56
2022-11-24T03:36:32.307Z,7.69
2022-11-24T03:37:32.296Z,7.58
2022-11-24T03:38:32.281Z,7.67
2022-11-24T03:39:32.272Z,7.67
2022-11-24T03:40:32.259Z,7.88
2022-11-24T03:41:32.255Z,7.87
2022-11-24T03:42:32.238Z,7.77
2022-11-24T03:43:32.230Z,7.82
2022-11-24T03:44:32.557Z,7.85
2022-11-24T03:45:45.990Z,7.94
2022-11-24T03:46:32.271Z,7.91
2022-11-24T03:47:32.181Z,7.93
2022-11-24T03:48:32.167Z,7.90
2022-11-24T03:49:32.562Z,7.91
2022-11-24T03:50:32.140Z,7.98
2022-11-24T03:51:32.126Z,8.08
2022-11-24T03:52:32.119Z,8.03
2022-11-24T03:53:32.107Z,8.09
2022-11-24T03:54:32.440Z,8.12
2022-11-24T03:55:32.084Z,8.20
2022-11-24T03:56:32.071Z,8.20
2022-11-24T03:57:32.056Z,8.24
2022-11-24T03:58:32.046Z,8.23
2022-11-24T03:59:32.033Z,8.28
2022-11-24T04:00:32.025Z,8.27
2022-11-24T04:01:32.066Z,8.34
2022-11-24T04:02:32.069Z,8.34
2022-11-24T04:03:31.986Z,8.45
2022-11-24T04:04:32.290Z,8.38
2022-11-24T04:05:31.966Z,8.41
2022-11-24T04:06:31.957Z,8.49
2022-11-24T04:07:31.992Z,8.45
2022-11-24T04:08:31.938Z,8.55
2022-11-24T04:09:31.919Z,8.60
2022-11-24T04:10:31.908Z,8.60
2022-11-24T04:11:31.895Z,8.63
2022-11-24T04:12:31.886Z,8.53
2022-11-24T04:13:31.878Z,8.58
2022-11-24T04:14:32.151Z,8.60
2022-11-24T04:15:31.853Z,8.73
2022-11-24T04:16:31.888Z,8.76
2022-11-24T04:17:31.823Z,8.71
2022-11-24T04:18:31.815Z,8.76
2022-11-24T04:19:31.804Z,8.79
2022-11-24T04:20:31.793Z,8.87
2022-11-24T04:21:31.780Z,8.76
2022-11-24T04:22:31.767Z,8.74
2022-11-24T04:23:31.754Z,8.78
2022-11-24T04:24:31.907Z,8.85
2022-11-24T04:25:31.734Z,8.82
2022-11-24T04:26:31.739Z,8.84
2022-11-24T04:27:31.713Z,8.89
2022-11-24T04:28:31.702Z,8.82
2022-11-24T04:29:31.687Z,8.88
2022-11-24T04:30:31.679Z,8.84
2022-11-24T04:31:31.690Z,8.92
2022-11-24T04:32:31.656Z,8.95
2022-11-24T04:33:31.643Z,8.91
2022-11-24T04:34:32.138Z,8.89
2022-11-24T04:35:31.616Z,8.99
2022-11-24T04:36:31.608Z,8.97
2022-11-24T04:37:31.601Z,8.94
2022-11-24T04:39:23.250Z,8.95
2022-11-24T04:39:31.574Z,8.95
2022-11-24T04:40:31.564Z,9.08
2022-11-24T04:41:31.558Z,9.08
2022-11-24T04:42:31.557Z,9.04
2022-11-24T04:43:34.155Z,9.02
2022-11-24T04:44:31.903Z,9.00
2022-11-24T04:45:31.507Z,9.06
2022-11-24T04:46:31.527Z,9.06
2022-11-24T04:47:31.485Z,9.13
2022-11-24T04:48:31.470Z,9.13
2022-11-24T04:49:31.458Z,9.11
2022-11-24T04:50:31.450Z,9.14
2022-11-24T04:51:31.437Z,9.25
2022-11-24T04:52:31.427Z,9.23
2022-11-24T04:53:31.417Z,9.21
2022-11-24T04:54:31.813Z,9.19
2022-11-24T04:55:31.393Z,9.19
2022-11-24T04:56:31.381Z,9.21
2022-11-24T04:57:31.366Z,9.18
2022-11-24T04:58:31.363Z,9.32
2022-11-24T04:59:31.349Z,9.28
2022-11-24T05:00:31.334Z,9.28
2022-11-24T05:01:31.367Z,9.18
2022-11-24T05:02:31.315Z,9.29
2022-11-24T05:03:31.326Z,9.31
2022-11-24T05:04:31.592Z,9.22
2022-11-24T05:05:31.284Z,9.29
2022-11-24T05:06:31.270Z,9.21
2022-11-24T05:07:31.308Z,9.23
2022-11-24T05:08:31.245Z,9.21
2022-11-24T05:09:55.055Z,9.32
2022-11-24T05:10:31.228Z,9.19
2022-11-24T05:11:31.214Z,9.31
2022-11-24T05:12:31.222Z,9.28
2022-11-24T05:13:31.188Z,9.16
2022-11-24T05:14:31.423Z,9.26
2022-11-24T05:15:31.168Z,9.32
2022-11-24T05:16:31.217Z,9.31
2022-11-24T05:17:31.145Z,9.34
2022-11-24T05:18:31.136Z,9.32
2022-11-24T05:19:32.500Z,9.31
2022-11-24T05:20:31.113Z,9.39
2022-11-24T05:21:31.095Z,9.37
2022-11-24T05:22:31.092Z,9.41
2022-11-24T05:23:31.081Z,9.51
2022-11-24T05:24:31.100Z,9.48
2022-11-24T05:25:31.057Z,9.44
2022-11-24T05:26:31.045Z,9.44
2022-11-24T05:27:31.031Z,9.41
2022-11-24T05:28:31.029Z,9.41
2022-11-24T05:29:31.008Z,9.41
2022-11-24T05:30:31.931Z,9.41
2022-11-24T05:31:31.067Z,9.41
2022-11-24T05:32:30.978Z,9.40
2022-11-24T05:33:30.973Z,9.47
2022-11-24T05:34:31.206Z,9.37
2022-11-24T05:35:30.946Z,9.48
2022-11-24T05:36:30.935Z,9.46
2022-11-24T05:37:30.914Z,9.44
2022-11-24T05:38:30.914Z,9.48
2022-11-24T05:39:30.900Z,9.44
2022-11-24T05:40:31.437Z,9.46
2022-11-24T05:41:30.879Z,9.48
2022-11-24T05:42:31.433Z,9.46
2022-11-24T05:43:30.858Z,9.48
2022-11-24T05:44:30.922Z,9.47
2022-11-24T05:45:30.835Z,9.46
2022-11-24T05:46:30.842Z,9.47
2022-11-24T05:47:30.813Z,9.43
2022-11-24T05:48:30.799Z,9.41
2022-11-24T05:49:30.803Z,9.40
2022-11-24T05:50:30.781Z,9.43
2022-11-24T05:51:30.768Z,9.50
2022-11-24T05:52:30.759Z,9.47
2022-11-24T05:53:30.747Z,9.56
2022-11-24T05:54:30.855Z,9.47
2022-11-24T05:55:30.724Z,9.46
2022-11-24T05:56:30.716Z,9.51
2022-11-24T05:57:30.701Z,9.50
2022-11-24T05:58:30.688Z,9.44
2022-11-24T05:59:30.680Z,9.46
2022-11-24T06:00:30.670Z,9.46
2022-11-24T06:01:30.699Z,9.51
2022-11-24T06:02:30.758Z,9.48
2022-11-24T06:03:30.637Z,9.48
2022-11-24T06:04:30.621Z,9.46
2022-11-24T06:05:30.609Z,9.50
2022-11-24T06:06:30.603Z,9.56
2022-11-24T06:07:30.674Z,9.50
2022-11-24T06:08:31.380Z,9.51
2022-11-24T06:09:30.568Z,9.43
2022-11-24T06:10:30.559Z,9.50
2022-11-24T06:11:30.547Z,9.54
2022-11-24T06:12:30.536Z,9.50
2022-11-24T06:13:30.592Z,9.51
2022-11-24T06:14:30.514Z,9.54
2022-11-24T06:15:30.502Z,9.51
2022-11-24T06:16:30.593Z,9.46
2022-11-24T06:17:30.481Z,9.50
2022-11-24T06:18:30.468Z,9.51
2022-11-24T06:19:30.457Z,9.50
2022-11-24T06:20:32.856Z,9.54
2022-11-24T06:21:30.436Z,9.58
2022-11-24T06:22:30.430Z,9.58
2022-11-24T06:23:30.415Z,9.58
2022-11-24T06:24:30.400Z,9.59
2022-11-24T06:25:30.384Z,9.62
2022-11-24T06:26:30.392Z,9.66
2022-11-24T06:27:30.373Z,9.54
2022-11-24T06:28:30.362Z,9.55
2022-11-24T06:29:30.350Z,9.59
2022-11-24T06:30:30.340Z,9.58
2022-11-24T06:31:30.364Z,9.51
2022-11-24T06:32:30.316Z,9.50
2022-11-24T06:33:30.301Z,9.56
2022-11-24T06:34:30.297Z,9.50
2022-11-24T06:35:30.284Z,9.56
2022-11-24T06:36:30.270Z,9.50
2022-11-24T06:37:30.261Z,9.48
2022-11-24T06:38:30.249Z,9.54
2022-11-24T06:39:30.238Z,9.51
2022-11-24T06:40:30.227Z,9.55
2022-11-24T06:41:30.219Z,9.48
2022-11-24T06:42:30.209Z,9.48
2022-11-24T06:43:30.192Z,9.50
2022-11-24T06:44:30.185Z,9.55
2022-11-24T06:45:30.224Z,9.51
2022-11-24T06:46:30.163Z,9.50
2022-11-24T06:47:30.150Z,9.51
2022-11-24T06:48:30.144Z,9.46
2022-11-24T06:49:30.127Z,9.47
2022-11-24T06:50:33.532Z,9.48
2022-11-24T06:51:30.108Z,9.48
2022-11-24T06:52:30.096Z,9.48
2022-11-24T06:53:30.084Z,9.56
2022-11-24T06:54:30.072Z,9.47
2022-11-24T06:55:30.058Z,9.54
2022-11-24T06:56:30.050Z,9.50
2022-11-24T06:57:30.039Z,9.47
2022-11-24T06:58:30.030Z,9.47
2022-11-24T06:59:30.018Z,9.46
2022-11-24T07:00:30.009Z,9.54
2022-11-24T07:01:30.082Z,9.50
2022-11-24T07:02:29.988Z,9.46
2022-11-24T07:03:30.022Z,9.46
2022-11-24T07:04:29.964Z,9.46
2022-11-24T07:05:29.953Z,9.50
2022-11-24T07:06:29.943Z,9.50
2022-11-24T07:07:29.975Z,9.51
2022-11-24T07:08:29.922Z,9.44
2022-11-24T07:09:29.908Z,9.46
2022-11-24T07:10:29.899Z,9.48
2022-11-24T07:11:29.886Z,9.48
2022-11-24T07:12:29.877Z,9.48
2022-11-24T07:13:29.868Z,9.48
2022-11-24T07:14:29.855Z,9.47
2022-11-24T07:15:29.844Z,9.48
2022-11-24T07:16:29.897Z,9.50
2022-11-24T07:17:29.824Z,9.44
2022-11-24T07:18:29.812Z,9.46
2022-11-24T07:19:29.804Z,9.41
2022-11-24T07:20:29.788Z,9.55
2022-11-24T07:21:29.776Z,9.54
2022-11-24T07:22:29.771Z,9.48
2022-11-24T07:23:29.760Z,9.50
2022-11-24T07:24:29.745Z,9.51
2022-11-24T07:25:29.735Z,9.48
2022-11-24T07:26:29.720Z,9.50
2022-11-24T07:27:29.715Z,9.48
2022-11-24T07:28:29.697Z,9.50
2022-11-24T07:29:29.691Z,9.50
2022-11-24T07:30:29.679Z,9.50
2022-11-24T07:31:29.729Z,9.55
2022-11-24T07:32:29.668Z,9.48
2022-11-24T07:33:29.647Z,9.50
2022-11-24T07:34:29.637Z,9.62
2022-11-24T07:35:29.627Z,9.59
2022-11-24T07:36:36.796Z,9.65
2022-11-24T07:38:33.558Z,9.56
2022-11-24T07:39:33.532Z,9.65
2022-11-24T07:41:26.598Z,9.68
2022-11-24T07:42:26.585Z,9.66
2022-11-24T07:44:30.527Z,9.64
2022-11-24T07:45:30.553Z,9.65
2022-11-24T07:47:23.372Z,9.72
2022-11-24T07:48:23.357Z,9.69
2022-11-24T07:50:27.356Z,9.73
2022-11-24T07:51:27.291Z,9.74
2022-11-24T07:53:20.353Z,9.72
2022-11-24T07:54:20.337Z,9.69
2022-11-24T07:56:24.291Z,9.73
2022-11-24T07:57:24.267Z,9.72
2022-11-24T07:59:17.339Z,9.73
2022-11-24T08:00:17.332Z,9.72
2022-11-24T08:02:21.260Z,9.72
2022-11-24T08:03:21.276Z,9.72
2022-11-24T08:05:25.195Z,9.82
2022-11-24T08:06:29.997Z,9.74
2022-11-24T08:08:29.122Z,9.68
2022-11-24T08:09:29.099Z,9.77
2022-11-24T08:11:33.052Z,9.72
2022-11-24T08:12:33.028Z,9.72
2022-11-24T08:14:37.088Z,9.74
2022-11-24T08:15:36.950Z,9.72
2022-11-24T08:17:29.815Z,9.72
2022-11-24T08:18:29.801Z,9.73
2022-11-24T08:20:33.745Z,9.69
2022-11-24T08:21:33.732Z,9.73
2022-11-24T08:23:37.664Z,9.91
2022-11-24T08:24:37.648Z,9.80
2022-11-24T08:26:41.608Z,9.79
2022-11-24T08:27:41.578Z,9.84
2022-11-24T08:29:45.532Z,9.83
2022-11-24T08:30:45.509Z,9.82
2022-11-24T08:32:49.464Z,9.80
2022-11-24T08:33:49.438Z,9.87
2022-11-24T08:35:53.413Z,9.94
2022-11-24T08:36:53.360Z,9.89
2022-11-24T08:38:57.328Z,9.95
2022-11-24T08:39:57.284Z,9.94
2022-11-24T08:42:01.224Z,9.94
2022-11-24T08:43:01.214Z,9.92
2022-11-24T08:45:19.871Z,9.92
2022-11-24T08:46:05.158Z,9.87
2022-11-24T08:48:09.078Z,9.98
2022-11-24T08:49:09.069Z,9.94
2022-11-24T08:51:13.012Z,9.97
2022-11-24T08:52:12.989Z,9.98
2022-11-24T08:54:16.937Z,9.97
2022-11-24T08:55:16.914Z,10.04
2022-11-24T08:57:09.783Z,10.02
2022-11-24T08:58:09.768Z,10.10
2022-11-24T09:00:14.307Z,10.12
2022-11-24T09:01:14.278Z,10.07
2022-11-24T09:03:17.842Z,10.17
2022-11-24T09:04:17.907Z,10.07
2022-11-24T09:06:21.774Z,10.28
2022-11-24T09:07:21.787Z,10.19
2022-11-24T09:09:25.702Z,10.17
2022-11-24T09:10:25.679Z,10.19
2022-11-24T09:12:29.626Z,10.22
2022-11-24T09:13:29.612Z,10.23
2022-11-24T09:15:33.556Z,10.41
2022-11-24T09:16:33.570Z,10.42
2022-11-24T09:18:37.475Z,10.35
2022-11-24T09:19:37.464Z,10.33
2022-11-24T09:21:41.413Z,10.48
2022-11-24T09:22:41.391Z,10.41
2022-11-24T09:24:45.343Z,10.60
2022-11-24T09:25:45.322Z,10.56
2022-11-24T09:27:38.188Z,10.56
2022-11-24T09:28:38.176Z,10.64
2022-11-24T09:30:42.158Z,10.60
2022-11-24T09:31:42.107Z,10.71
2022-11-24T09:33:46.044Z,10.75
2022-11-24T09:34:46.027Z,10.78
2022-11-24T09:36:49.979Z,10.86
2022-11-24T09:37:49.961Z,10.82
2022-11-24T09:39:53.903Z,10.92
2022-11-24T09:40:55.399Z,10.89
2022-11-24T09:42:57.825Z,10.99
2022-11-24T09:43:57.808Z,10.97
2022-11-24T09:46:06.064Z,11.07
2022-11-24T09:47:01.793Z,11.10
2022-11-24T09:49:05.684Z,11.07
2022-11-24T09:50:05.653Z,11.17
2022-11-24T09:52:09.605Z,11.26
2022-11-24T09:53:09.575Z,11.29
2022-11-24T09:55:13.527Z,11.32
2022-11-24T09:56:13.506Z,11.36
2022-11-24T09:58:17.445Z,11.41
2022-11-24T09:59:17.429Z,11.44
2022-11-24T10:01:21.415Z,11.55
2022-11-24T10:02:21.358Z,11.59
2022-11-24T10:04:25.364Z,11.63
2022-11-24T10:05:25.278Z,11.68
2022-11-24T10:07:18.199Z,11.68
2022-11-24T10:08:18.133Z,11.65
2022-11-24T10:10:24.987Z,11.69
2022-11-24T10:11:22.058Z,11.75
2022-11-24T10:13:25.999Z,11.75
2022-11-24T10:14:25.989Z,11.86
2022-11-24T10:16:30.034Z,11.77
2022-11-24T10:17:29.919Z,11.75
2022-11-24T10:19:37.098Z,11.73
2022-11-24T10:20:33.838Z,11.72
2022-11-24T10:22:37.784Z,11.72
2022-11-24T10:23:39.923Z,11.80
2022-11-24T10:25:41.743Z,11.69
2022-11-24T10:26:41.722Z,11.77
2022-11-24T10:28:45.654Z,11.73
2022-11-24T10:29:45.640Z,11.75
2022-11-24T10:31:49.589Z,11.75
2022-11-24T10:32:49.575Z,11.73
2022-11-24T10:34:53.513Z,11.78
2022-11-24T10:35:53.491Z,11.83
2022-11-24T10:37:57.424Z,11.80
2022-11-24T10:38:57.420Z,11.80
2022-11-24T10:41:01.363Z,11.87
2022-11-24T10:42:01.343Z,11.83
2022-11-24T10:44:05.288Z,11.88
2022-11-24T10:45:05.269Z,12.04
2022-11-24T10:46:58.191Z,12.02
2022-11-24T10:47:58.128Z,11.95
2022-11-24T10:50:02.067Z,11.87
2022-11-24T10:51:02.052Z,11.99
2022-11-24T10:53:06.000Z,11.88
2022-11-24T10:54:05.982Z,11.87
2022-11-24T10:56:09.924Z,11.78
2022-11-24T10:57:09.908Z,11.99
2022-11-24T10:59:13.855Z,11.91
2022-11-24T11:00:13.842Z,11.86
2022-11-24T11:02:17.823Z,11.90
2022-11-24T11:03:17.763Z,12.02
2022-11-24T11:05:21.702Z,12.09
2022-11-24T11:06:21.686Z,12.12
2022-11-24T11:08:25.640Z,12.10
2022-11-24T11:09:25.611Z,12.07
2022-11-24T11:11:29.553Z,12.02
2022-11-24T11:12:44.031Z,11.97
2022-11-24T11:14:33.479Z,12.13
2022-11-24T11:15:33.540Z,12.13
2022-11-24T11:17:26.344Z,12.17
2022-11-24T11:18:26.320Z,12.22
2022-11-24T11:20:30.260Z,12.40
2022-11-24T11:21:30.266Z,12.45
2022-11-24T11:23:34.190Z,12.75
2022-11-24T11:24:34.168Z,12.68
2022-11-24T11:26:38.116Z,12.79
2022-11-24T11:27:38.097Z,13.01
2022-11-24T11:34:03.322Z,12.83
2022-11-24T11:35:49.897Z,12.78
2022-11-24T11:36:49.875Z,12.72
2022-11-24T11:38:53.826Z,12.67
2022-11-24T11:39:53.804Z,12.60
2022-11-24T11:41:57.741Z,12.60
2022-11-24T11:43:02.880Z,12.76
2022-11-24T11:45:01.677Z,12.80
2022-11-24T11:46:01.813Z,12.76
2022-11-24T11:48:05.602Z,12.76
2022-11-24T11:49:05.582Z,12.75
2022-11-24T11:51:23.299Z,12.73
2022-11-24T11:52:09.519Z,12.76
2022-11-24T11:54:13.458Z,12.73
2022-11-24T11:55:13.435Z,12.67
2022-11-24T11:57:06.305Z,12.70
2022-11-24T11:58:06.298Z,12.79
2022-11-24T12:00:10.237Z,12.78
2022-11-24T12:01:10.218Z,12.72
2022-11-24T12:03:14.273Z,12.73
2022-11-24T12:04:14.214Z,12.80
2022-11-24T12:06:18.086Z,12.76
2022-11-24T12:07:18.110Z,12.83
2022-11-24T12:09:22.014Z,12.87
2022-11-24T12:10:21.992Z,12.83
2022-11-24T12:12:25.932Z,12.79
2022-11-24T12:13:25.922Z,12.76
2022-11-24T12:15:29.864Z,12.87
2022-11-24T12:16:29.870Z,12.82
2022-11-24T12:18:56.655Z,12.68
2022-11-24T12:19:34.054Z,12.65
2022-11-24T12:21:37.830Z,12.64
2022-11-24T12:22:37.722Z,12.68
2022-11-24T12:24:41.753Z,12.68
2022-11-24T12:25:41.652Z,12.67
2022-11-24T12:27:34.522Z,12.80
2022-11-24T12:28:34.503Z,12.85
2022-11-24T12:30:38.454Z,12.86
2022-11-24T12:31:38.601Z,12.90
2022-11-24T12:33:46.183Z,12.75
2022-11-24T12:34:42.357Z,12.75
2022-11-24T12:36:46.303Z,12.73
2022-11-24T12:37:46.290Z,12.80
2022-11-24T12:39:50.229Z,12.82
2022-11-24T12:40:50.210Z,12.95
2022-11-24T12:42:54.141Z,13.13
2022-11-24T12:43:54.139Z,13.12
2022-11-24T12:45:58.096Z,13.13
2022-11-24T12:46:58.128Z,13.28
2022-11-24T12:49:02.019Z,13.37
2022-11-24T12:50:02.072Z,13.37
2022-11-24T12:52:05.933Z,13.28
2022-11-24T12:53:05.923Z,13.33
2022-11-24T12:55:09.871Z,13.31
2022-11-24T12:56:09.846Z,13.35
2022-11-24T12:58:13.793Z,12.98
2022-11-24T12:59:13.774Z,12.97
2022-11-24T13:01:17.839Z,12.86
2022-11-24T13:02:17.792Z,12.78
2022-11-24T13:04:21.661Z,12.72
2022-11-24T13:05:21.633Z,12.76
2022-11-24T13:07:14.540Z,12.90
2022-11-24T13:08:14.487Z,12.79
2022-11-24T13:10:18.438Z,12.87
2022-11-24T13:11:18.413Z,12.67
2022-11-24T13:13:22.353Z,12.55
2022-11-24T13:14:22.343Z,12.47
2022-11-24T13:16:59.472Z,12.54
2022-11-24T13:17:35.147Z,12.57
2022-11-24T13:19:30.211Z,12.54
2022-11-24T13:20:30.189Z,12.67
2022-11-24T13:22:34.132Z,12.68
2022-11-24T13:23:34.120Z,12.72
2022-11-24T13:25:38.068Z,12.73
2022-11-24T13:26:41.553Z,12.67
2022-11-24T13:29:00.692Z,12.62
2022-11-24T13:29:41.973Z,12.61
2022-11-24T13:31:45.978Z,12.67
2022-11-24T13:32:45.909Z,12.67
2022-11-24T13:34:49.928Z,12.61
2022-11-24T13:35:49.830Z,12.53
2022-11-24T13:37:43.269Z,12.47
2022-11-24T13:38:43.250Z,12.50
2022-11-24T13:40:36.136Z,12.54
2022-11-24T13:41:36.113Z,12.55
2022-11-24T13:43:40.068Z,12.50
2022-11-24T13:44:40.049Z,12.58
2022-11-24T13:46:44.045Z,12.53
2022-11-24T13:47:43.980Z,12.61
2022-11-24T13:49:47.939Z,12.57
2022-11-24T13:50:47.906Z,12.55
2022-11-24T13:52:51.854Z,12.55
2022-11-24T13:53:51.840Z,12.57
2022-11-24T13:55:55.802Z,12.54
2022-11-24T13:56:55.770Z,12.53
2022-11-24T13:58:48.651Z,12.49
2022-11-24T13:59:48.634Z,12.47
2022-11-24T14:01:52.655Z,12.53
2022-11-24T14:02:52.588Z,12.49
2022-11-24T14:04:56.520Z,12.50
2022-11-24T14:05:56.496Z,12.50
2022-11-24T14:07:49.437Z,12.43
2022-11-24T14:08:49.383Z,12.40
2022-11-24T14:10:53.356Z,12.40
2022-11-24T14:11:53.334Z,12.32
2022-11-24T14:13:57.276Z,12.37
2022-11-24T14:14:57.288Z,12.39
2022-11-24T14:17:01.212Z,12.32
2022-11-24T14:18:01.196Z,12.36
2022-11-24T14:20:05.143Z,12.25
2022-11-24T14:21:05.120Z,12.24
2022-11-24T14:23:09.069Z,12.29
2022-11-24T14:24:09.049Z,12.24
2022-11-24T14:26:12.996Z,12.24
2022-11-24T14:27:12.987Z,12.29
2022-11-24T14:29:16.917Z,12.15
2022-11-24T14:30:16.913Z,12.06
2022-11-24T14:32:09.992Z,12.09
2022-11-24T14:33:09.969Z,12.09
2022-11-24T14:35:14.097Z,12.07
2022-11-24T14:36:13.897Z,12.07
2022-11-24T14:38:06.784Z,12.00
2022-11-24T14:39:06.764Z,11.97
2022-11-24T14:41:10.881Z,11.86
2022-11-24T14:42:10.686Z,11.86
2022-11-24T14:44:14.628Z,11.80
2022-11-24T14:45:14.619Z,11.78
2022-11-24T14:47:18.572Z,11.60
2022-11-24T14:48:18.550Z,11.65
2022-11-24T14:50:22.553Z,11.57
2022-11-24T14:51:22.470Z,11.50
2022-11-24T14:53:26.545Z,11.55
2022-11-24T14:54:26.395Z,11.59
2022-11-24T14:56:30.357Z,11.55
2022-11-24T14:57:30.322Z,11.40
2022-11-24T14:59:34.267Z,11.50
2022-11-24T15:00:34.342Z,11.41
2022-11-24T15:02:38.254Z,11.35
2022-11-24T15:03:38.188Z,11.37
2022-11-24T15:05:42.125Z,11.36
2022-11-24T15:06:42.115Z,11.44
2022-11-24T15:08:34.988Z,11.26
2022-11-24T15:09:34.964Z,11.27
2022-11-24T15:11:38.914Z,11.22
2022-11-24T15:12:38.898Z,11.23
2022-11-24T15:14:42.842Z,11.15
2022-11-24T15:15:42.826Z,11.08
2022-11-24T15:17:46.775Z,10.93
2022-11-24T15:18:46.740Z,11.05
2022-11-24T15:20:50.688Z,10.97
2022-11-24T15:21:50.696Z,11.04
2022-11-24T15:23:54.654Z,11.00
2022-11-24T15:24:54.604Z,10.81
2022-11-24T15:26:58.553Z,10.96
2022-11-24T15:27:58.533Z,10.96
2022-11-24T15:30:02.471Z,10.75
2022-11-24T15:31:02.482Z,10.81
2022-11-24T15:33:06.411Z,10.64
2022-11-24T15:34:06.388Z,10.57
2022-11-24T15:36:10.337Z,10.63
2022-11-24T15:37:10.311Z,10.56
2022-11-24T15:39:14.251Z,10.53
2022-11-24T15:40:14.240Z,10.51
2022-11-24T15:42:18.192Z,10.48
2022-11-24T15:43:18.162Z,10.48
2022-11-24T15:45:22.098Z,10.37
2022-11-24T15:46:22.138Z,10.40
2022-11-24T15:48:18.231Z,10.23
2022-11-24T15:49:15.040Z,10.19
2022-11-24T15:51:18.878Z,10.22
2022-11-24T15:52:18.866Z,10.19
2022-11-24T15:54:22.815Z,10.20
2022-11-24T15:55:22.794Z,10.28
2022-11-24T15:57:26.737Z,10.12
2022-11-24T15:58:26.723Z,10.15
2022-11-24T16:00:30.663Z,10.10
2022-11-24T16:01:30.742Z,10.09
2022-11-24T16:03:49.899Z,9.98
2022-11-24T16:04:34.851Z,9.89
2022-11-24T16:06:38.525Z,9.84
2022-11-24T16:07:38.535Z,9.74